Time;durP1;ratioP1;P1;durP2;ratioP2;P2;SDS_P1;SDS_P2;PMS_P1;PMS_P2;Temp;Humidity;BMP_temperature;BMP_pressure;BME280_temperature;BME280_humidity;BME280_pressure;Samples;Min_cycle;Max_cycle;Signal;HPM_P1;HPM_P2
2021/07/19 05:12:56;;;;;;;;;;;;;;;;;;;;;
2021/07/19 05:26:49;;;;;;;4.87;4.40;;;21.80;46.80;;;;;;4826732;29;20436;-79
2021/07/19 05:47:57;;;;;;;4.87;4.50;;;21.80;47.40;;;;;;4824335;29;20484;-80
2021/07/19 05:50:34;;;;;;;5.30;4.83;;;21.80;47.40;;;;;;4822529;29;20445;-80
2021/07/19 05:54:01;;;;;;;6.83;4.50;;;21.80;47.40;;;;;;4810460;29;20433;-80
2021/07/19 05:56:32;;;;;;;5.23;4.73;;;21.80;47.50;;;;;;4772628;29;20419;-80
2021/07/19 05:59:28;;;;;;;5.10;4.53;;;21.90;47.50;;;;;;4805992;29;20469;-79
2021/07/19 06:02:07;;;;;;;5.70;4.60;;;21.80;47.50;;;;;;4806222;29;20498;-80
2021/07/19 06:08:26;;;;;;;6.17;4.47;;;21.80;47.70;;;;;;4805743;29;20496;-80
2021/07/19 06:11:10;;;;;;;6.10;4.00;;;21.90;48.00;;;;;;4803030;29;20440;-80
2021/07/19 06:14:15;;;;;;;4.27;3.97;;;21.80;47.60;;;;;;4824250;29;20433;-80
2021/07/19 06:22:53;;;;;;;5.33;5.00;;;21.80;47.70;;;;;;4835233;23;20506;-80
2021/07/19 06:49:54;;;;;;;5.40;5.00;;;21.90;47.60;;;;;;3019353;27;20503;-81
2021/07/19 06:52:40;;;;;;;5.10;4.80;;;21.90;47.20;;;;;;4822980;29;20440;-80
2021/07/19 06:55:24;;;;;;;7.27;6.23;;;21.90;47.40;;;;;;4824168;29;20433;-80
2021/07/19 06:58:26;;;;;;;6.63;6.00;;;21.90;47.40;;;;;;4824230;29;20552;-80
2021/07/19 07:01:30;;;;;;;7.87;6.03;;;21.90;47.20;;;;;;4807545;29;20446;-80
2021/07/19 07:04:30;;;;;;;11.90;6.43;;;21.90;47.20;;;;;;4809191;29;20859;-80
2021/07/19 07:07:19;;;;;;;7.87;5.53;;;21.90;47.30;;;;;;4841516;29;20459;-81
2021/07/19 07:09:48;;;;;;;11.13;6.10;;;21.90;47.20;;;;;;4842902;29;20482;-80
2021/07/19 07:12:29;;;;;;;7.40;5.90;;;21.90;48.00;;;;;;4842706;29;20440;-80
2021/07/19 07:15:18;;;;;;;6.30;5.80;;;21.90;47.30;;;;;;4811032;29;20432;-80
2021/07/19 07:18:11;;;;;;;11.73;6.63;;;21.90;47.40;;;;;;4843082;29;20440;-80
2021/07/19 07:20:58;;;;;;;7.90;5.80;;;21.90;47.40;;;;;;4840800;29;20500;-80
2021/07/19 07:24:02;;;;;;;5.90;5.40;;;21.90;47.30;;;;;;4841169;29;20464;-80
2021/07/19 07:26:31;;;;;;;6.20;5.70;;;22.00;47.50;;;;;;4807098;29;20437;-80
2021/07/19 07:29:03;;;;;;;7.77;5.77;;;21.90;47.40;;;;;;4810707;29;20570;-81
2021/07/19 07:31:53;;;;;;;5.70;5.30;;;21.90;47.30;;;;;;4838469;29;20478;-80
2021/07/19 07:34:59;;;;;;;7.63;5.60;;;21.90;47.40;;;;;;4799048;29;20438;-81
2021/07/19 07:37:30;;;;;;;5.97;5.57;;;21.90;47.40;;;;;;4805304;29;20458;-80
2021/07/19 07:40:08;;;;;;;6.20;5.80;;;22.00;47.50;;;;;;4805017;29;20475;-80
2021/07/19 07:43:33;;;;;;;6.10;5.60;;;22.00;47.30;;;;;;4818113;29;20425;-81
2021/07/19 07:49:31;;;;;;;6.33;5.73;;;22.00;47.30;;;;;;4806838;29;20534;-80
2021/07/19 08:02:16;;;;;;;5.40;4.90;;;22.10;47.50;;;;;;4797077;29;20410;-80
2021/07/19 08:05:37;;;;;;;5.80;5.40;;;22.00;47.40;;;;;;4764373;30;20416;-81
2021/07/19 08:08:40;;;;;;;5.40;5.10;;;22.00;47.30;;;;;;4761993;30;20469;-81
2021/07/19 08:11:50;;;;;;;6.03;5.63;;;22.10;47.50;;;;;;4748240;30;20930;-80
2021/07/19 08:18:21;;;;;;;5.77;5.37;;;22.10;47.50;;;;;;4752440;30;20483;-80
2021/07/19 08:23:45;;;;;;;6.00;5.50;;;22.10;47.50;;;;;;4801621;29;20956;-80
2021/07/19 08:26:17;;;;;;;6.13;5.43;;;22.10;47.30;;;;;;4795758;29;20438;-79
2021/07/19 08:28:56;;;;;;;;;;;;;;;;;;;;;
2021/07/19 08:34:51;;;;;;;7.60;5.87;;;22.10;47.40;;;;;;4814503;29;20416;-80
2021/07/19 08:38:06;;;;;;;6.40;5.80;;;22.10;47.30;;;;;;4842294;29;20446;-80
2021/07/19 08:41:00;;;;;;;5.90;5.40;;;22.10;47.40;;;;;;4842691;29;20432;-79
2021/07/19 08:44:13;;;;;;;5.27;4.77;;;22.20;47.60;;;;;;4839730;29;20469;-80
2021/07/19 08:50:25;;;;;;;6.43;5.93;;;22.20;47.40;;;;;;4846253;29;20479;-80
2021/07/19 08:53:28;;;;;;;5.57;5.07;;;22.20;47.40;;;;;;4841504;29;20449;-80
2021/07/19 08:56:07;;;;;;;6.83;6.33;;;22.20;47.30;;;;;;4826897;29;20781;-80
2021/07/19 08:58:44;;;;;;;7.07;6.40;;;22.20;47.30;;;;;;4827616;29;20460;-80
2021/07/19 09:01:21;;;;;;;7.33;6.80;;;22.20;47.10;;;;;;4831415;29;20441;-80
2021/07/19 09:15:36;;;;;;;6.33;5.87;;;22.30;47.60;;;;;;5112255;23;20500;-79
2021/07/19 09:18:26;;;;;;;7.97;7.30;;;22.30;47.10;;;;;;4816930;29;20442;-80
2021/07/19 09:22:03;;;;;;;6.30;5.73;;;22.30;46.70;;;;;;4827075;29;20432;-80
2021/07/19 09:29:44;;;;;;;6.60;5.93;;;22.30;46.60;;;;;;4753856;30;20476;-81
2021/07/19 09:32:33;;;;;;;6.43;6.03;;;22.30;46.90;;;;;;4775106;29;20936;-79
2021/07/19 09:35:21;;;;;;;7.10;6.60;;;22.30;46.80;;;;;;4797040;29;20441;-80
2021/07/19 09:37:54;;;;;;;5.40;5.10;;;22.30;46.90;;;;;;4809807;29;20462;-80
2021/07/19 09:40:39;;;;;;;6.83;5.90;;;22.30;46.80;;;;;;4794744;29;20441;-80
2021/07/19 09:47:08;;;;;;;7.70;6.70;;;22.40;46.90;;;;;;4811034;29;20403;-81
2021/07/19 09:49:36;;;;;;;7.20;6.53;;;22.40;46.90;;;;;;4810174;29;20573;-80
2021/07/19 09:52:24;;;;;;;6.90;6.40;;;22.40;46.90;;;;;;4825083;29;20999;-80
2021/07/19 09:55:39;;;;;;;8.10;6.60;;;22.40;46.90;;;;;;4819563;29;20801;-81
2021/07/19 09:58:35;;;;;;;6.40;5.90;;;22.40;46.80;;;;;;4752066;30;20543;-80
2021/07/19 10:01:07;;;;;;;6.97;6.47;;;22.40;46.30;;;;;;4749010;30;20499;-81
2021/07/19 10:14:37;;;;;;;6.83;6.20;;;22.50;46.60;;;;;;4771769;30;20435;-82
2021/07/19 10:17:55;;;;;;;6.17;5.67;;;22.50;46.10;;;;;;4756075;30;20917;-81
2021/07/19 10:24:37;;;;;;;7.10;6.57;;;22.50;45.50;;;;;;4728579;30;20479;-81
2021/07/19 10:27:18;;;;;;;6.07;5.47;;;22.60;45.50;;;;;;4707311;29;20444;-80
2021/07/19 10:30:19;;;;;;;6.43;5.90;;;22.60;45.80;;;;;;4813591;29;20472;-80
2021/07/19 10:37:23;;;;;;;6.90;6.27;;;22.60;45.10;;;;;;4825967;29;20424;-82
2021/07/19 10:51:34;;;;;;;5.83;5.33;;;22.60;45.70;;;;;;4761500;29;20855;-81
2021/07/19 11:05:15;;;;;;;6.43;5.93;;;22.60;44.20;;;;;;4803222;29;20474;-81
2021/07/19 11:08:18;;;;;;;6.23;5.73;;;22.60;44.70;;;;;;4806101;29;20593;-80
2021/07/19 11:22:35;;;;;;;6.33;5.80;;;22.70;43.90;;;;;;4751711;30;20436;-80
2021/07/19 11:35:58;;;;;;;5.30;5.00;;;22.70;44.00;;;;;;4644184;30;20437;-81
2021/07/19 11:39:14;;;;;;;7.20;6.00;;;22.70;43.10;;;;;;4655336;30;20951;-83
2021/07/19 11:42:45;;;;;;;6.20;5.80;;;22.60;43.90;;;;;;4671603;30;20460;-83
2021/07/19 11:46:05;;;;;;;5.17;4.87;;;22.70;44.70;;;;;;4636808;30;20463;-84
2021/07/19 11:52:40;;;;;;;5.37;5.00;;;22.70;43.90;;;;;;4705306;30;20497;-81
2021/07/19 12:10:09;;;;;;;4.20;4.00;;;22.70;42.50;;;;;;4763096;30;20484;-80
2021/07/19 12:13:00;;;;;;;5.73;5.17;;;22.70;41.00;;;;;;4739273;30;20421;-81
2021/07/19 12:16:22;;;;;;;4.97;4.67;;;22.70;40.50;;;;;;4739129;30;20428;-80
2021/07/19 12:19:50;;;;;;;5.33;4.83;;;22.70;41.90;;;;;;4748776;30;20460;-80
2021/07/19 12:22:42;;;;;;;4.73;4.33;;;22.70;42.70;;;;;;4751580;30;20512;-80
2021/07/19 12:26:38;;;;;;;5.13;4.73;;;22.60;42.60;;;;;;4738547;30;20465;-80
2021/07/19 12:32:39;;;;;;;5.37;4.93;;;22.70;42.70;;;;;;4742934;30;20440;-80
2021/07/19 12:35:43;;;;;;;5.67;4.23;;;22.70;42.00;;;;;;4757925;30;20444;-80
2021/07/19 12:41:41;;;;;;;4.00;3.80;;;22.70;40.50;;;;;;4742243;30;20437;-81
2021/07/19 12:44:14;;;;;;;3.60;3.40;;;22.70;41.50;;;;;;4739852;30;20437;-80
2021/07/19 12:46:46;;;;;;;6.60;3.90;;;22.70;41.60;;;;;;4773066;30;20439;-81
2021/07/19 12:49:38;;;;;;;4.40;4.03;;;22.60;40.80;;;;;;4805443;29;20534;-81
2021/07/19 12:52:56;;;;;;;4.57;4.27;;;22.70;40.00;;;;;;4810460;29;20439;-81
2021/07/19 12:59:34;;;;;;;5.20;4.43;;;22.70;40.90;;;;;;4792883;29;20454;-81
2021/07/19 13:02:35;;;;;;;4.63;4.33;;;22.70;41.00;;;;;;4785786;29;21105;-80
2021/07/19 13:05:20;;;;;;;5.10;4.60;;;22.70;42.20;;;;;;4772354;30;20858;-82
2021/07/19 13:08:16;;;;;;;5.10;4.70;;;22.70;42.00;;;;;;4806490;29;20457;-83
2021/07/19 13:11:27;;;;;;;4.63;4.23;;;22.70;42.00;;;;;;4824648;29;20473;-83
2021/07/19 13:14:53;;;;;;;5.13;4.17;;;22.70;40.50;;;;;;4845953;29;20416;-81
2021/07/19 13:17:57;;;;;;;7.77;4.90;;;22.80;40.90;;;;;;4825202;29;20437;-82
2021/07/19 13:21:25;;;;;;;5.13;4.77;;;22.70;41.20;;;;;;4782319;29;20417;-82
2021/07/19 13:24:55;;;;;;;5.03;4.63;;;22.70;41.30;;;;;;4755106;30;20447;-85
2021/07/19 13:28:34;;;;;;;5.77;5.20;;;22.80;41.20;;;;;;4737577;30;20472;-82
2021/07/19 13:31:20;;;;;;;5.00;4.50;;;22.80;40.60;;;;;;4754244;30;20437;-80
2021/07/19 13:33:51;;;;;;;6.70;5.00;;;22.80;41.10;;;;;;4753292;30;20577;-81
2021/07/19 13:57:35;;;;;;;7.90;5.63;;;22.90;40.30;;;;;;4700534;30;20991;-82
2021/07/19 14:03:32;;;;;;;6.40;5.73;;;22.90;40.80;;;;;;4717659;30;20890;-81
2021/07/19 14:06:27;;;;;;;5.67;5.13;;;22.90;41.00;;;;;;4712551;30;20549;-81
2021/07/19 14:08:55;;;;;;;7.30;5.77;;;22.90;41.10;;;;;;4725785;30;21067;-81
2021/07/19 14:11:21;;;;;;;6.77;6.00;;;22.90;41.40;;;;;;4736331;30;20482;-81
2021/07/19 14:14:15;;;;;;;9.60;5.10;;;22.90;41.50;;;;;;4802592;29;20445;-80
2021/07/19 14:16:49;;;;;;;9.17;5.33;;;22.90;41.40;;;;;;4837928;29;20461;-81
2021/07/19 14:19:19;;;;;;;6.17;5.43;;;22.80;40.90;;;;;;4842249;29;21023;-81
2021/07/19 14:21:47;;;;;;;6.03;4.90;;;22.90;41.10;;;;;;4825738;29;21015;-81
2021/07/19 14:24:13;;;;;;;6.60;5.33;;;22.90;41.20;;;;;;4825996;29;20441;-80
2021/07/19 14:26:47;;;;;;;5.97;4.10;;;22.90;41.30;;;;;;4826934;29;20425;-80
2021/07/19 14:29:14;;;;;;;5.13;4.73;;;22.90;41.20;;;;;;4840742;29;20567;-80
2021/07/19 14:31:40;;;;;;;5.30;4.90;;;22.90;41.20;;;;;;4841638;29;20432;-81
2021/07/19 14:34:25;;;;;;;6.67;4.80;;;22.90;41.40;;;;;;4841372;29;20421;-80
2021/07/19 14:37:34;;;;;;;5.00;4.60;;;22.90;41.30;;;;;;4826261;29;20433;-80
2021/07/19 14:40:22;;;;;;;4.67;4.37;;;22.90;41.40;;;;;;4825577;29;20445;-80
2021/07/19 14:43:31;;;;;;;5.37;4.90;;;22.90;41.40;;;;;;4826017;29;20505;-80
2021/07/19 14:46:15;;;;;;;6.13;4.40;;;22.90;41.40;;;;;;4821456;29;20453;-81
2021/07/19 14:49:01;;;;;;;5.37;4.87;;;22.90;41.40;;;;;;4820519;29;20509;-81
2021/07/19 14:51:54;;;;;;;4.87;4.57;;;22.90;41.50;;;;;;4807865;29;20430;-81
2021/07/19 14:54:34;;;;;;;5.77;5.27;;;22.90;41.90;;;;;;4806287;29;20423;-81
2021/07/19 14:57:25;;;;;;;5.20;4.80;;;22.90;41.80;;;;;;4811571;29;20487;-81
2021/07/19 15:00:23;;;;;;;4.80;4.50;;;22.80;41.90;;;;;;4824611;29;20437;-81
2021/07/19 15:03:39;;;;;;;8.43;4.90;;;22.90;42.20;;;;;;4808828;29;20941;-80
2021/07/19 15:06:05;;;;;;;5.20;4.80;;;22.90;42.40;;;;;;4809435;29;20441;-81
2021/07/19 15:08:58;;;;;;;4.90;4.50;;;22.80;42.20;;;;;;4790725;29;20466;-80
2021/07/19 15:11:33;;;;;;;5.03;4.73;;;22.80;42.00;;;;;;4805455;29;20462;-80
2021/07/19 15:14:22;;;;;;;6.00;5.37;;;22.90;42.30;;;;;;4814529;29;20556;-81
2021/07/19 15:17:40;;;;;;;5.13;4.73;;;22.90;42.10;;;;;;4826493;29;20437;-81
2021/07/19 15:20:37;;;;;;;5.40;5.00;;;22.90;42.10;;;;;;4806055;29;20431;-81
2021/07/19 15:23:10;;;;;;;4.70;4.40;;;22.80;42.20;;;;;;4794806;29;20433;-81
2021/07/19 15:26:08;;;;;;;5.67;5.20;;;22.90;42.40;;;;;;4807392;29;20453;-81
2021/07/19 15:29:42;;;;;;;5.70;5.20;;;22.90;42.50;;;;;;4824253;29;20467;-81
2021/07/19 15:32:55;;;;;;;4.80;4.53;;;22.90;42.40;;;;;;4809286;29;20448;-81
2021/07/19 15:36:23;;;;;;;5.73;5.23;;;22.90;42.70;;;;;;4819151;29;20425;-81
2021/07/19 15:39:00;;;;;;;5.50;5.10;;;22.80;42.80;;;;;;4822792;29;20463;-81
2021/07/19 15:42:02;;;;;;;5.50;5.17;;;22.80;42.80;;;;;;4788973;29;20436;-80
2021/07/19 15:44:59;;;;;;;5.17;4.77;;;22.80;42.80;;;;;;4785030;29;20488;-81
2021/07/19 15:48:21;;;;;;;5.60;5.20;;;22.80;42.70;;;;;;4793982;29;20462;-80
2021/07/19 15:50:59;;;;;;;5.70;5.17;;;22.90;42.90;;;;;;4791021;29;20438;-81
2021/07/19 15:54:38;;;;;;;5.30;4.90;;;22.90;42.90;;;;;;4806705;29;20433;-81
2021/07/19 15:57:56;;;;;;;6.73;6.23;;;22.90;42.90;;;;;;4792824;29;20807;-80
2021/07/19 16:01:20;;;;;;;6.10;5.70;;;22.90;42.90;;;;;;4789705;29;20870;-81
2021/07/19 16:07:57;;;;;;;5.93;5.53;;;22.90;42.90;;;;;;4769060;30;20437;-80
2021/07/19 16:11:03;;;;;;;5.80;5.30;;;22.90;42.90;;;;;;4747065;30;20495;-81
2021/07/19 16:14:35;;;;;;;6.83;5.70;;;22.90;42.90;;;;;;4800005;29;20445;-80
2021/07/19 16:17:28;;;;;;;6.33;5.70;;;22.90;42.90;;;;;;4792655;29;20450;-80
2021/07/19 16:20:37;;;;;;;5.33;4.97;;;22.90;43.10;;;;;;4810024;29;20454;-81
2021/07/19 16:23:34;;;;;;;6.13;5.70;;;22.90;42.90;;;;;;4808701;29;20453;-81
2021/07/19 16:26:16;;;;;;;6.00;5.23;;;22.80;43.10;;;;;;4809357;29;20434;-80
2021/07/19 16:28:50;;;;;;;4.90;4.50;;;22.90;43.00;;;;;;4809018;29;20469;-81
2021/07/19 16:32:01;;;;;;;5.70;5.30;;;22.90;43.40;;;;;;4777896;30;20508;-80
2021/07/19 16:34:28;;;;;;;6.10;5.50;;;22.80;43.20;;;;;;4781799;30;20431;-81
2021/07/19 16:37:29;;;;;;;5.87;5.33;;;22.80;43.20;;;;;;4786374;29;20433;-81
2021/07/19 16:39:57;;;;;;;6.00;5.60;;;22.80;43.40;;;;;;4828102;29;20463;-81
2021/07/19 16:42:25;;;;;;;5.30;5.00;;;22.90;43.60;;;;;;4828439;29;20489;-81
2021/07/19 16:44:53;;;;;;;5.57;5.17;;;22.80;43.50;;;;;;4842053;29;20949;-80
2021/07/19 16:47:20;;;;;;;5.47;5.00;;;22.80;43.50;;;;;;4811338;29;20438;-81
2021/07/19 16:49:46;;;;;;;6.50;6.10;;;22.80;43.40;;;;;;4842411;29;20818;-80
2021/07/19 16:52:17;;;;;;;5.77;5.43;;;22.80;43.30;;;;;;4828252;29;20430;-81
2021/07/19 16:54:44;;;;;;;5.70;5.30;;;22.80;43.40;;;;;;4829137;29;20433;-81
2021/07/19 16:57:12;;;;;;;6.50;6.00;;;22.80;43.40;;;;;;4828637;29;20426;-81
2021/07/19 16:59:38;;;;;;;5.50;5.20;;;22.80;43.50;;;;;;4843275;29;20441;-81
2021/07/19 17:02:04;;;;;;;5.80;5.40;;;22.80;43.70;;;;;;4829953;29;20417;-81
2021/07/19 17:04:30;;;;;;;6.73;6.10;;;22.80;43.50;;;;;;4829716;29;20208;-80
2021/07/19 17:06:58;;;;;;;5.80;5.40;;;22.80;43.60;;;;;;4829199;29;20312;-80
2021/07/19 17:09:24;;;;;;;5.90;5.50;;;22.80;43.60;;;;;;4843765;29;20525;-80
2021/07/19 17:11:50;;;;;;;5.40;5.00;;;22.80;43.60;;;;;;4828661;29;20925;-80
2021/07/19 17:14:18;;;;;;;5.47;5.07;;;22.80;43.60;;;;;;4827913;29;20184;-80
2021/07/19 17:16:47;;;;;;;5.90;5.50;;;22.80;43.70;;;;;;4842857;29;20260;-81
2021/07/19 17:19:14;;;;;;;5.30;4.90;;;22.80;43.70;;;;;;4827542;29;21059;-80
2021/07/19 17:21:48;;;;;;;5.90;5.40;;;22.80;43.70;;;;;;4843016;29;20442;-80
2021/07/19 17:24:16;;;;;;;6.17;5.60;;;22.80;43.80;;;;;;4828396;29;20207;-80
2021/07/19 17:26:45;;;;;;;7.53;6.70;;;22.90;43.90;;;;;;4843604;29;20429;-80
2021/07/19 17:29:13;;;;;;;6.47;6.00;;;22.80;44.50;;;;;;4842899;29;20521;-80
2021/07/19 17:31:42;;;;;;;7.33;6.30;;;22.80;43.70;;;;;;4830116;29;20414;-80
2021/07/19 17:34:58;;;;;;;6.80;6.20;;;22.80;43.80;;;;;;4829344;29;20421;-80
2021/07/19 17:40:05;;;;;;;7.30;6.37;;;22.90;43.80;;;;;;4967682;23;20500;-81
2021/07/19 18:16:17;;;;;;;8.53;7.70;;;22.80;43.70;;;;;;4809365;29;20523;-80
2021/07/19 18:18:50;;;;;;;8.30;7.70;;;22.90;43.70;;;;;;4823368;29;20518;-81
2021/07/19 18:42:32;;;;;;;9.07;8.27;;;22.80;43.40;;;;;;4735438;30;20434;-80
